sensor_id;sensor_type;location;lat;lon;timestamp;temperature;humidity
44705;DHT22;30431;48.520;9.046;2023-02-13T00:02:19;-0.90;99.90
44705;DHT22;30431;48.520;9.046;2023-02-13T00:04:46;-1.00;99.90
44705;DHT22;30431;48.520;9.046;2023-02-13T00:07:13;-1.00;99.90
44705;DHT22;30431;48.520;9.046;2023-02-13T00:09:40;-1.10;99.90
44705;DHT22;30431;48.520;9.046;2023-02-13T00:12:09;-1.10;99.90
44705;DHT22;30431;48.520;9.046;2023-02-13T00:14:37;-1.10;99.90
44705;DHT22;30431;48.520;9.046;2023-02-13T00:17:04;-1.00;99.90
44705;DHT22;30431;48.520;9.046;2023-02-13T00:19:32;-0.80;99.90
44705;DHT22;30431;48.520;9.046;2023-02-13T00:21:59;-0.70;99.90
44705;DHT22;30431;48.520;9.046;2023-02-13T00:24:25;-0.50;99.90
44705;DHT22;30431;48.520;9.046;2023-02-13T00:26:52;-0.50;99.90
44705;DHT22;30431;48.520;9.046;2023-02-13T00:29:22;-0.50;99.90
44705;DHT22;30431;48.520;9.046;2023-02-13T00:31:50;-0.40;99.90
44705;DHT22;30431;48.520;9.046;2023-02-13T00:34:17;-0.30;99.90
44705;DHT22;30431;48.520;9.046;2023-02-13T00:36:45;-0.30;99.90
44705;DHT22;30431;48.520;9.046;2023-02-13T00:39:12;-0.30;99.90
44705;DHT22;30431;48.520;9.046;2023-02-13T00:41:41;-0.20;99.90
44705;DHT22;30431;48.520;9.046;2023-02-13T00:44:09;-0.20;99.90
44705;DHT22;30431;48.520;9.046;2023-02-13T00:46:36;-0.20;99.90
44705;DHT22;30431;48.520;9.046;2023-02-13T00:49:05;-0.10;99.90
44705;DHT22;30431;48.520;9.046;2023-02-13T00:51:33;0.00;99.90
44705;DHT22;30431;48.520;9.046;2023-02-13T00:54:00;0.00;99.90
44705;DHT22;30431;48.520;9.046;2023-02-13T00:56:30;0.10;99.90
44705;DHT22;30431;48.520;9.046;2023-02-13T00:58:57;0.10;99.90
44705;DHT22;30431;48.520;9.046;2023-02-13T01:01:27;0.00;99.90
44705;DHT22;30431;48.520;9.046;2023-02-13T01:03:54;0.00;99.90
44705;DHT22;30431;48.520;9.046;2023-02-13T01:06:21;-0.10;99.90
44705;DHT22;30431;48.520;9.046;2023-02-13T01:08:48;-0.10;99.90
44705;DHT22;30431;48.520;9.046;2023-02-13T01:11:17;-0.20;99.90
44705;DHT22;30431;48.520;9.046;2023-02-13T01:13:45;-0.30;99.90
44705;DHT22;30431;48.520;9.046;2023-02-13T01:16:12;-0.40;99.90
44705;DHT22;30431;48.520;9.046;2023-02-13T01:18:44;-0.40;99.90
44705;DHT22;30431;48.520;9.046;2023-02-13T01:21:17;-0.40;99.90
44705;DHT22;30431;48.520;9.046;2023-02-13T01:23:47;-0.30;99.90
44705;DHT22;30431;48.520;9.046;2023-02-13T01:26:20;-0.20;99.90
44705;DHT22;30431;48.520;9.046;2023-02-13T01:28:54;0.00;99.90
44705;DHT22;30431;48.520;9.046;2023-02-13T01:31:21;0.00;99.90
44705;DHT22;30431;48.520;9.046;2023-02-13T01:33:55;-0.20;99.90
44705;DHT22;30431;48.520;9.046;2023-02-13T01:36:26;-0.10;99.90
44705;DHT22;30431;48.520;9.046;2023-02-13T01:38:57;0.00;99.90
44705;DHT22;30431;48.520;9.046;2023-02-13T01:41:26;0.10;99.90
44705;DHT22;30431;48.520;9.046;2023-02-13T01:43:58;0.10;99.90
44705;DHT22;30431;48.520;9.046;2023-02-13T01:46:37;0.10;99.90
44705;DHT22;30431;48.520;9.046;2023-02-13T01:49:16;0.20;99.90
44705;DHT22;30431;48.520;9.046;2023-02-13T01:51:45;0.20;99.90
44705;DHT22;30431;48.520;9.046;2023-02-13T01:54:20;0.10;99.90
44705;DHT22;30431;48.520;9.046;2023-02-13T01:56:54;0.10;99.90
44705;DHT22;30431;48.520;9.046;2023-02-13T01:59:33;0.10;99.90
44705;DHT22;30431;48.520;9.046;2023-02-13T02:02:03;0.20;99.90
44705;DHT22;30431;48.520;9.046;2023-02-13T02:04:31;0.30;99.90
44705;DHT22;30431;48.520;9.046;2023-02-13T02:07:10;0.20;99.90
44705;DHT22;30431;48.520;9.046;2023-02-13T02:09:40;0.10;99.90
44705;DHT22;30431;48.520;9.046;2023-02-13T02:12:32;-0.10;99.90
44705;DHT22;30431;48.520;9.046;2023-02-13T02:15:05;0.10;99.90
44705;DHT22;30431;48.520;9.046;2023-02-13T02:17:37;0.20;99.90
44705;DHT22;30431;48.520;9.046;2023-02-13T02:20:23;0.20;99.90
44705;DHT22;30431;48.520;9.046;2023-02-13T02:23:13;0.20;99.90
44705;DHT22;30431;48.520;9.046;2023-02-13T02:39:58;0.00;99.90
44705;DHT22;30431;48.520;9.046;2023-02-13T02:50:58;-0.30;99.90
44705;DHT22;30431;48.520;9.046;2023-02-13T02:56:21;-0.50;99.90
44705;DHT22;30431;48.520;9.046;2023-02-13T02:58:54;-0.50;99.90
44705;DHT22;30431;48.520;9.046;2023-02-13T03:01:42;-0.30;99.90
44705;DHT22;30431;48.520;9.046;2023-02-13T03:04:32;-0.20;99.90
44705;DHT22;30431;48.520;9.046;2023-02-13T03:07:19;-0.20;99.90
44705;DHT22;30431;48.520;9.046;2023-02-13T03:09:50;-0.30;99.90
44705;DHT22;30431;48.520;9.046;2023-02-13T03:12:43;-0.20;99.90
44705;DHT22;30431;48.520;9.046;2023-02-13T03:15:34;-0.30;99.90
44705;DHT22;30431;48.520;9.046;2023-02-13T03:18:04;-0.20;99.90
44705;DHT22;30431;48.520;9.046;2023-02-13T03:21:04;-0.20;99.90
44705;DHT22;30431;48.520;9.046;2023-02-13T03:24:23;-0.30;99.90
44705;DHT22;30431;48.520;9.046;2023-02-13T03:29:55;-0.40;99.90
44705;DHT22;30431;48.520;9.046;2023-02-13T03:38:51;-0.80;99.90
44705;DHT22;30431;48.520;9.046;2023-02-13T03:41:27;-0.70;99.90
44705;DHT22;30431;48.520;9.046;2023-02-13T03:44:12;-0.50;99.90
44705;DHT22;30431;48.520;9.046;2023-02-13T03:46:47;-0.40;99.90
44705;DHT22;30431;48.520;9.046;2023-02-13T03:49:25;-0.30;99.90
44705;DHT22;30431;48.520;9.046;2023-02-13T03:58:28;-0.40;99.90
44705;DHT22;30431;48.520;9.046;2023-02-13T04:01:16;-0.40;99.90
44705;DHT22;30431;48.520;9.046;2023-02-13T04:09:35;-0.20;99.90
44705;DHT22;30431;48.520;9.046;2023-02-13T04:12:18;-0.10;99.90
44705;DHT22;30431;48.520;9.046;2023-02-13T04:17:38;-0.10;99.90
44705;DHT22;30431;48.520;9.046;2023-02-13T04:20:08;-0.10;99.90
44705;DHT22;30431;48.520;9.046;2023-02-13T04:22:41;-0.10;99.90
44705;DHT22;30431;48.520;9.046;2023-02-13T04:25:15;0.00;99.90
44705;DHT22;30431;48.520;9.046;2023-02-13T04:28:08;0.00;99.90
44705;DHT22;30431;48.520;9.046;2023-02-13T04:30:35;-0.20;99.90
44705;DHT22;30431;48.520;9.046;2023-02-13T04:33:03;-0.20;99.90
44705;DHT22;30431;48.520;9.046;2023-02-13T04:35:30;-0.20;99.90
44705;DHT22;30431;48.520;9.046;2023-02-13T04:38:01;-0.30;99.90
44705;DHT22;30431;48.520;9.046;2023-02-13T04:40:30;-0.40;99.90
44705;DHT22;30431;48.520;9.046;2023-02-13T04:42:59;-0.50;99.90
44705;DHT22;30431;48.520;9.046;2023-02-13T04:45:31;-0.50;99.90
44705;DHT22;30431;48.520;9.046;2023-02-13T04:48:01;-0.40;99.90
44705;DHT22;30431;48.520;9.046;2023-02-13T04:50:28;-0.70;99.90
44705;DHT22;30431;48.520;9.046;2023-02-13T04:52:56;-0.80;99.90
44705;DHT22;30431;48.520;9.046;2023-02-13T04:55:27;-0.80;99.90
44705;DHT22;30431;48.520;9.046;2023-02-13T04:57:55;-0.90;99.90
44705;DHT22;30431;48.520;9.046;2023-02-13T05:00:24;-1.20;99.90
44705;DHT22;30431;48.520;9.046;2023-02-13T05:02:51;-1.40;99.90
44705;DHT22;30431;48.520;9.046;2023-02-13T05:05:19;-1.50;99.90
44705;DHT22;30431;48.520;9.046;2023-02-13T05:07:50;-1.60;99.90
44705;DHT22;30431;48.520;9.046;2023-02-13T05:10:17;-1.60;99.90
44705;DHT22;30431;48.520;9.046;2023-02-13T05:12:44;-1.70;99.90
44705;DHT22;30431;48.520;9.046;2023-02-13T05:15:11;-1.80;99.90
44705;DHT22;30431;48.520;9.046;2023-02-13T05:17:38;-1.80;99.90
44705;DHT22;30431;48.520;9.046;2023-02-13T05:20:05;-1.80;99.90
44705;DHT22;30431;48.520;9.046;2023-02-13T05:22:34;-2.00;99.90
44705;DHT22;30431;48.520;9.046;2023-02-13T05:25:20;-2.00;99.90
44705;DHT22;30431;48.520;9.046;2023-02-13T05:27:50;-2.10;99.90
44705;DHT22;30431;48.520;9.046;2023-02-13T05:30:17;-2.10;99.90
44705;DHT22;30431;48.520;9.046;2023-02-13T05:32:44;-2.20;99.90
44705;DHT22;30431;48.520;9.046;2023-02-13T05:35:11;-2.30;99.90
44705;DHT22;30431;48.520;9.046;2023-02-13T05:37:41;-2.30;99.90
44705;DHT22;30431;48.520;9.046;2023-02-13T05:40:09;-2.50;99.90
44705;DHT22;30431;48.520;9.046;2023-02-13T05:42:36;-2.50;99.90
44705;DHT22;30431;48.520;9.046;2023-02-13T05:45:03;-2.50;99.90
44705;DHT22;30431;48.520;9.046;2023-02-13T05:47:31;-2.60;99.90
44705;DHT22;30431;48.520;9.046;2023-02-13T05:49:58;-2.60;99.90
44705;DHT22;30431;48.520;9.046;2023-02-13T05:52:26;-2.70;99.90
44705;DHT22;30431;48.520;9.046;2023-02-13T05:54:53;-2.60;99.90
44705;DHT22;30431;48.520;9.046;2023-02-13T05:57:20;-2.70;99.90
44705;DHT22;30431;48.520;9.046;2023-02-13T05:59:47;-2.80;99.90
44705;DHT22;30431;48.520;9.046;2023-02-13T06:02:14;-2.80;99.90
44705;DHT22;30431;48.520;9.046;2023-02-13T06:04:47;-2.70;99.90
44705;DHT22;30431;48.520;9.046;2023-02-13T06:07:16;-2.80;99.90
44705;DHT22;30431;48.520;9.046;2023-02-13T06:09:44;-2.70;99.90
44705;DHT22;30431;48.520;9.046;2023-02-13T06:12:13;-2.80;99.90
44705;DHT22;30431;48.520;9.046;2023-02-13T06:14:42;-2.90;99.90
44705;DHT22;30431;48.520;9.046;2023-02-13T06:17:13;-2.90;99.90
44705;DHT22;30431;48.520;9.046;2023-02-13T06:19:39;-2.90;99.90
44705;DHT22;30431;48.520;9.046;2023-02-13T06:22:08;-2.80;99.90
44705;DHT22;30431;48.520;9.046;2023-02-13T06:24:35;-2.80;99.90
44705;DHT22;30431;48.520;9.046;2023-02-13T06:27:04;-2.80;99.90
44705;DHT22;30431;48.520;9.046;2023-02-13T06:29:31;-2.70;99.90
44705;DHT22;30431;48.520;9.046;2023-02-13T06:39:35;-2.70;99.90
44705;DHT22;30431;48.520;9.046;2023-02-13T06:42:05;-2.70;99.90
44705;DHT22;30431;48.520;9.046;2023-02-13T06:44:33;-2.50;99.90
44705;DHT22;30431;48.520;9.046;2023-02-13T06:47:02;-2.30;99.90
44705;DHT22;30431;48.520;9.046;2023-02-13T06:49:31;-2.20;99.90
44705;DHT22;30431;48.520;9.046;2023-02-13T06:52:23;-2.10;99.90
44705;DHT22;30431;48.520;9.046;2023-02-13T06:54:50;-1.90;99.90
44705;DHT22;30431;48.520;9.046;2023-02-13T06:57:17;-1.80;99.90
44705;DHT22;30431;48.520;9.046;2023-02-13T06:59:44;-1.80;99.90
44705;DHT22;30431;48.520;9.046;2023-02-13T07:02:12;-1.70;99.90
44705;DHT22;30431;48.520;9.046;2023-02-13T07:04:39;-1.60;99.90
44705;DHT22;30431;48.520;9.046;2023-02-13T07:07:06;-1.50;99.90
44705;DHT22;30431;48.520;9.046;2023-02-13T07:09:33;-1.50;99.90
44705;DHT22;30431;48.520;9.046;2023-02-13T07:12:03;-1.30;99.90
44705;DHT22;30431;48.520;9.046;2023-02-13T07:14:30;-1.10;99.90
44705;DHT22;30431;48.520;9.046;2023-02-13T07:16:57;-1.00;99.90
44705;DHT22;30431;48.520;9.046;2023-02-13T07:19:27;-0.80;99.90
44705;DHT22;30431;48.520;9.046;2023-02-13T07:21:54;-0.70;99.90
44705;DHT22;30431;48.520;9.046;2023-02-13T07:24:23;-0.70;99.90
44705;DHT22;30431;48.520;9.046;2023-02-13T07:26:50;-0.80;99.90
44705;DHT22;30431;48.520;9.046;2023-02-13T07:29:17;-0.60;99.90
44705;DHT22;30431;48.520;9.046;2023-02-13T07:31:44;-0.70;99.90
44705;DHT22;30431;48.520;9.046;2023-02-13T07:34:11;-0.60;99.90
44705;DHT22;30431;48.520;9.046;2023-02-13T07:36:38;-0.50;99.90
44705;DHT22;30431;48.520;9.046;2023-02-13T07:39:05;-0.40;99.90
44705;DHT22;30431;48.520;9.046;2023-02-13T07:41:34;-0.30;99.90
44705;DHT22;30431;48.520;9.046;2023-02-13T07:44:01;-0.20;99.90
44705;DHT22;30431;48.520;9.046;2023-02-13T07:46:28;-0.40;99.90
44705;DHT22;30431;48.520;9.046;2023-02-13T07:48:55;-0.60;99.90
44705;DHT22;30431;48.520;9.046;2023-02-13T07:51:22;-0.60;99.90
44705;DHT22;30431;48.520;9.046;2023-02-13T07:53:52;-0.70;99.90
44705;DHT22;30431;48.520;9.046;2023-02-13T07:56:21;-0.80;99.90
44705;DHT22;30431;48.520;9.046;2023-02-13T07:58:48;-0.80;99.90
44705;DHT22;30431;48.520;9.046;2023-02-13T08:01:16;-0.80;99.90
44705;DHT22;30431;48.520;9.046;2023-02-13T08:03:47;-0.80;99.90
44705;DHT22;30431;48.520;9.046;2023-02-13T08:06:17;-0.80;99.90
44705;DHT22;30431;48.520;9.046;2023-02-13T08:08:45;-0.80;99.90
44705;DHT22;30431;48.520;9.046;2023-02-13T08:11:25;-0.80;99.90
44705;DHT22;30431;48.520;9.046;2023-02-13T08:14:12;-0.80;99.90
44705;DHT22;30431;48.520;9.046;2023-02-13T08:16:39;-0.70;99.90
44705;DHT22;30431;48.520;9.046;2023-02-13T08:19:06;-0.80;99.90
44705;DHT22;30431;48.520;9.046;2023-02-13T08:21:33;-0.70;99.90
44705;DHT22;30431;48.520;9.046;2023-02-13T08:24:04;-0.70;99.90
44705;DHT22;30431;48.520;9.046;2023-02-13T08:26:31;-0.60;99.90
44705;DHT22;30431;48.520;9.046;2023-02-13T08:28:59;-0.50;99.90
44705;DHT22;30431;48.520;9.046;2023-02-13T08:31:26;-0.40;99.90
44705;DHT22;30431;48.520;9.046;2023-02-13T08:33:55;-0.40;99.90
44705;DHT22;30431;48.520;9.046;2023-02-13T08:36:23;-0.30;99.90
44705;DHT22;30431;48.520;9.046;2023-02-13T08:38:50;0.00;99.90
44705;DHT22;30431;48.520;9.046;2023-02-13T08:41:17;0.10;99.90
44705;DHT22;30431;48.520;9.046;2023-02-13T08:43:45;0.50;99.90
44705;DHT22;30431;48.520;9.046;2023-02-13T08:46:12;0.80;99.90
44705;DHT22;30431;48.520;9.046;2023-02-13T08:48:40;1.10;99.90
44705;DHT22;30431;48.520;9.046;2023-02-13T08:51:08;1.10;99.90
44705;DHT22;30431;48.520;9.046;2023-02-13T08:53:37;1.40;99.90
44705;DHT22;30431;48.520;9.046;2023-02-13T08:56:05;1.70;99.90
44705;DHT22;30431;48.520;9.046;2023-02-13T08:58:32;1.70;99.90
44705;DHT22;30431;48.520;9.046;2023-02-13T09:01:06;1.70;99.90
44705;DHT22;30431;48.520;9.046;2023-02-13T09:03:34;1.70;99.90
44705;DHT22;30431;48.520;9.046;2023-02-13T09:06:02;1.80;99.90
44705;DHT22;30431;48.520;9.046;2023-02-13T09:08:30;1.90;99.90
44705;DHT22;30431;48.520;9.046;2023-02-13T09:10:58;2.00;99.90
44705;DHT22;30431;48.520;9.046;2023-02-13T09:13:30;2.10;99.90
44705;DHT22;30431;48.520;9.046;2023-02-13T09:16:05;2.30;99.90
44705;DHT22;30431;48.520;9.046;2023-02-13T09:18:33;2.60;99.90
44705;DHT22;30431;48.520;9.046;2023-02-13T09:21:04;2.70;99.90
44705;DHT22;30431;48.520;9.046;2023-02-13T09:23:34;2.60;99.90
44705;DHT22;30431;48.520;9.046;2023-02-13T09:26:02;2.40;99.90
44705;DHT22;30431;48.520;9.046;2023-02-13T09:28:31;2.80;99.90
44705;DHT22;30431;48.520;9.046;2023-02-13T09:30:59;2.80;99.90
44705;DHT22;30431;48.520;9.046;2023-02-13T09:33:30;2.90;99.90
44705;DHT22;30431;48.520;9.046;2023-02-13T09:36:07;2.80;99.90
44705;DHT22;30431;48.520;9.046;2023-02-13T09:38:35;3.00;99.90
44705;DHT22;30431;48.520;9.046;2023-02-13T09:41:31;3.30;99.90
44705;DHT22;30431;48.520;9.046;2023-02-13T09:47:08;3.20;99.90
44705;DHT22;30431;48.520;9.046;2023-02-13T09:49:43;3.00;99.90
44705;DHT22;30431;48.520;9.046;2023-02-13T09:52:11;3.10;99.90
44705;DHT22;30431;48.520;9.046;2023-02-13T09:54:38;3.00;99.90
44705;DHT22;30431;48.520;9.046;2023-02-13T09:57:07;3.00;99.90
44705;DHT22;30431;48.520;9.046;2023-02-13T09:59:46;2.90;99.90
44705;DHT22;30431;48.520;9.046;2023-02-13T10:18:52;3.20;99.90
44705;DHT22;30431;48.520;9.046;2023-02-13T10:21:24;3.10;99.90
44705;DHT22;30431;48.520;9.046;2023-02-13T10:23:58;2.80;99.90
44705;DHT22;30431;48.520;9.046;2023-02-13T10:26:35;2.70;99.90
44705;DHT22;30431;48.520;9.046;2023-02-13T10:29:24;2.80;99.90
44705;DHT22;30431;48.520;9.046;2023-02-13T10:32:17;2.90;99.90
44705;DHT22;30431;48.520;9.046;2023-02-13T10:34:52;3.00;99.90
44705;DHT22;30431;48.520;9.046;2023-02-13T10:37:22;3.10;99.90
44705;DHT22;30431;48.520;9.046;2023-02-13T10:39:51;3.20;99.90
44705;DHT22;30431;48.520;9.046;2023-02-13T10:45:31;3.40;99.90
44705;DHT22;30431;48.520;9.046;2023-02-13T10:48:15;3.60;99.90
44705;DHT22;30431;48.520;9.046;2023-02-13T10:51:38;3.70;99.90
44705;DHT22;30431;48.520;9.046;2023-02-13T10:59:54;3.60;99.90
44705;DHT22;30431;48.520;9.046;2023-02-13T11:02:20;3.70;99.90
44705;DHT22;30431;48.520;9.046;2023-02-13T11:04:51;3.70;99.90
44705;DHT22;30431;48.520;9.046;2023-02-13T11:07:22;3.80;99.90
44705;DHT22;30431;48.520;9.046;2023-02-13T11:09:53;3.90;99.90
44705;DHT22;30431;48.520;9.046;2023-02-13T11:12:30;3.90;99.90
44705;DHT22;30431;48.520;9.046;2023-02-13T11:15:03;3.80;99.90
44705;DHT22;30431;48.520;9.046;2023-02-13T11:17:39;3.90;99.90
44705;DHT22;30431;48.520;9.046;2023-02-13T11:22:52;3.90;99.90
44705;DHT22;30431;48.520;9.046;2023-02-13T11:25:26;4.00;99.90
44705;DHT22;30431;48.520;9.046;2023-02-13T11:28:07;3.90;99.90
44705;DHT22;30431;48.520;9.046;2023-02-13T11:30:37;3.80;99.90
44705;DHT22;30431;48.520;9.046;2023-02-13T11:33:23;3.90;99.90
44705;DHT22;30431;48.520;9.046;2023-02-13T11:36:07;3.90;99.90
44705;DHT22;30431;48.520;9.046;2023-02-13T11:38:35;3.90;99.90
44705;DHT22;30431;48.520;9.046;2023-02-13T11:41:11;4.00;99.90
44705;DHT22;30431;48.520;9.046;2023-02-13T11:43:43;4.00;99.90
44705;DHT22;30431;48.520;9.046;2023-02-13T11:46:20;4.20;99.90
44705;DHT22;30431;48.520;9.046;2023-02-13T11:51:54;4.50;99.90
44705;DHT22;30431;48.520;9.046;2023-02-13T11:54:33;4.40;99.90
44705;DHT22;30431;48.520;9.046;2023-02-13T11:59:51;4.60;99.90
44705;DHT22;30431;48.520;9.046;2023-02-13T12:02:29;4.70;99.90
44705;DHT22;30431;48.520;9.046;2023-02-13T12:07:43;4.80;99.90
44705;DHT22;30431;48.520;9.046;2023-02-13T12:15:28;5.20;99.90
44705;DHT22;30431;48.520;9.046;2023-02-13T12:18:15;5.30;99.90
44705;DHT22;30431;48.520;9.046;2023-02-13T12:21:08;5.40;99.90
44705;DHT22;30431;48.520;9.046;2023-02-13T12:24:03;5.50;99.90
44705;DHT22;30431;48.520;9.046;2023-02-13T12:26:48;5.60;99.90
44705;DHT22;30431;48.520;9.046;2023-02-13T12:38:00;5.70;99.90
44705;DHT22;30431;48.520;9.046;2023-02-13T12:40:50;5.70;99.90
44705;DHT22;30431;48.520;9.046;2023-02-13T12:49:00;5.80;99.90
44705;DHT22;30431;48.520;9.046;2023-02-13T13:16:08;6.60;99.90
44705;DHT22;30431;48.520;9.046;2023-02-13T13:21:16;6.80;99.90
44705;DHT22;30431;48.520;9.046;2023-02-13T13:26:39;6.90;99.90
44705;DHT22;30431;48.520;9.046;2023-02-13T13:29:20;6.90;99.90
44705;DHT22;30431;48.520;9.046;2023-02-13T13:32:00;7.00;99.90
44705;DHT22;30431;48.520;9.046;2023-02-13T13:34:30;7.00;99.90
44705;DHT22;30431;48.520;9.046;2023-02-13T13:39:51;7.20;99.90
44705;DHT22;30431;48.520;9.046;2023-02-13T13:50:44;7.40;99.90
44705;DHT22;30431;48.520;9.046;2023-02-13T13:53:15;7.40;99.90
44705;DHT22;30431;48.520;9.046;2023-02-13T13:58:42;7.60;99.90
44705;DHT22;30431;48.520;9.046;2023-02-13T14:01:26;7.60;99.90
44705;DHT22;30431;48.520;9.046;2023-02-13T14:04:01;7.60;99.90
44705;DHT22;30431;48.520;9.046;2023-02-13T14:38:33;7.90;99.90
44705;DHT22;30431;48.520;9.046;2023-02-13T14:41:03;8.00;99.90
44705;DHT22;30431;48.520;9.046;2023-02-13T14:43:39;8.00;99.90
44705;DHT22;30431;48.520;9.046;2023-02-13T14:46:36;8.00;99.90
44705;DHT22;30431;48.520;9.046;2023-02-13T14:49:13;8.00;99.90
44705;DHT22;30431;48.520;9.046;2023-02-13T14:51:48;8.00;99.90
44705;DHT22;30431;48.520;9.046;2023-02-13T14:54:27;8.00;99.90
44705;DHT22;30431;48.520;9.046;2023-02-13T14:57:18;8.00;99.90
44705;DHT22;30431;48.520;9.046;2023-02-13T14:59:55;8.00;99.90
44705;DHT22;30431;48.520;9.046;2023-02-13T15:02:23;7.90;99.90
44705;DHT22;30431;48.520;9.046;2023-02-13T15:05:12;7.90;99.90
44705;DHT22;30431;48.520;9.046;2023-02-13T15:07:49;7.90;99.90
44705;DHT22;30431;48.520;9.046;2023-02-13T15:10:41;7.90;99.90
44705;DHT22;30431;48.520;9.046;2023-02-13T15:13:15;7.90;99.90
44705;DHT22;30431;48.520;9.046;2023-02-13T15:15:52;7.80;99.90
44705;DHT22;30431;48.520;9.046;2023-02-13T15:18:26;8.00;99.90
44705;DHT22;30431;48.520;9.046;2023-02-13T15:20:55;7.90;99.90
44705;DHT22;30431;48.520;9.046;2023-02-13T15:23:28;8.00;99.90
44705;DHT22;30431;48.520;9.046;2023-02-13T15:26:06;7.90;99.90
44705;DHT22;30431;48.520;9.046;2023-02-13T15:28:34;7.90;99.90
44705;DHT22;30431;48.520;9.046;2023-02-13T15:31:17;7.90;99.90
44705;DHT22;30431;48.520;9.046;2023-02-13T15:33:52;7.80;99.90
44705;DHT22;30431;48.520;9.046;2023-02-13T15:36:25;7.70;99.90
44705;DHT22;30431;48.520;9.046;2023-02-13T15:39:05;7.60;99.90
44705;DHT22;30431;48.520;9.046;2023-02-13T15:41:46;7.70;99.90
44705;DHT22;30431;48.520;9.046;2023-02-13T15:44:19;7.60;99.90
44705;DHT22;30431;48.520;9.046;2023-02-13T15:46:49;7.60;99.90
44705;DHT22;30431;48.520;9.046;2023-02-13T15:49:24;7.50;99.90
44705;DHT22;30431;48.520;9.046;2023-02-13T15:54:55;7.40;99.90
44705;DHT22;30431;48.520;9.046;2023-02-13T15:57:26;7.40;99.90
44705;DHT22;30431;48.520;9.046;2023-02-13T15:59:57;7.30;99.90
44705;DHT22;30431;48.520;9.046;2023-02-13T16:02:37;7.20;99.90
44705;DHT22;30431;48.520;9.046;2023-02-13T16:05:06;7.10;99.90
44705;DHT22;30431;48.520;9.046;2023-02-13T16:10:36;6.90;99.90
44705;DHT22;30431;48.520;9.046;2023-02-13T16:13:15;6.80;99.90
44705;DHT22;30431;48.520;9.046;2023-02-13T16:15:46;6.70;99.90
44705;DHT22;30431;48.520;9.046;2023-02-13T16:18:19;6.50;99.90
44705;DHT22;30431;48.520;9.046;2023-02-13T16:20:52;6.40;99.90
44705;DHT22;30431;48.520;9.046;2023-02-13T16:23:23;6.30;99.90
44705;DHT22;30431;48.520;9.046;2023-02-13T16:26:00;6.20;99.90
44705;DHT22;30431;48.520;9.046;2023-02-13T16:28:33;6.00;99.90
44705;DHT22;30431;48.520;9.046;2023-02-13T16:31:03;6.00;99.90
44705;DHT22;30431;48.520;9.046;2023-02-13T16:33:39;5.90;99.90
44705;DHT22;30431;48.520;9.046;2023-02-13T16:38:48;5.70;99.90
44705;DHT22;30431;48.520;9.046;2023-02-13T16:43:57;5.60;99.90
44705;DHT22;30431;48.520;9.046;2023-02-13T16:54:05;5.20;99.90
44705;DHT22;30431;48.520;9.046;2023-02-13T16:57:03;5.10;99.90
44705;DHT22;30431;48.520;9.046;2023-02-13T17:02:21;5.00;99.90
44705;DHT22;30431;48.520;9.046;2023-02-13T17:04:51;4.90;99.90
44705;DHT22;30431;48.520;9.046;2023-02-13T17:07:28;4.80;99.90
44705;DHT22;30431;48.520;9.046;2023-02-13T17:10:05;4.70;99.90
44705;DHT22;30431;48.520;9.046;2023-02-13T17:12:39;4.50;99.90
44705;DHT22;30431;48.520;9.046;2023-02-13T17:15:14;4.30;99.90
44705;DHT22;30431;48.520;9.046;2023-02-13T17:17:44;4.30;99.90
44705;DHT22;30431;48.520;9.046;2023-02-13T17:20:26;4.20;99.90
44705;DHT22;30431;48.520;9.046;2023-02-13T17:22:57;4.10;99.90
44705;DHT22;30431;48.520;9.046;2023-02-13T17:25:29;4.10;99.90
44705;DHT22;30431;48.520;9.046;2023-02-13T17:28:05;4.00;99.90
44705;DHT22;30431;48.520;9.046;2023-02-13T17:30:37;3.90;99.90
44705;DHT22;30431;48.520;9.046;2023-02-13T17:33:06;3.80;99.90
44705;DHT22;30431;48.520;9.046;2023-02-13T17:35:36;3.80;99.90
44705;DHT22;30431;48.520;9.046;2023-02-13T17:38:03;3.80;99.90
44705;DHT22;30431;48.520;9.046;2023-02-13T17:40:34;3.80;99.90
44705;DHT22;30431;48.520;9.046;2023-02-13T17:43:01;3.90;99.90
44705;DHT22;30431;48.520;9.046;2023-02-13T17:45:31;3.90;99.90
44705;DHT22;30431;48.520;9.046;2023-02-13T17:47:58;3.80;99.90
44705;DHT22;30431;48.520;9.046;2023-02-13T17:50:31;3.70;99.90
44705;DHT22;30431;48.520;9.046;2023-02-13T17:53:04;3.50;99.90
44705;DHT22;30431;48.520;9.046;2023-02-13T17:55:33;3.40;99.90
44705;DHT22;30431;48.520;9.046;2023-02-13T17:58:00;3.30;99.90
44705;DHT22;30431;48.520;9.046;2023-02-13T18:00:31;3.20;99.90
44705;DHT22;30431;48.520;9.046;2023-02-13T18:03:00;3.20;99.90
44705;DHT22;30431;48.520;9.046;2023-02-13T18:05:27;3.20;99.90
44705;DHT22;30431;48.520;9.046;2023-02-13T18:07:57;3.10;99.90
44705;DHT22;30431;48.520;9.046;2023-02-13T18:10:30;3.00;99.90
44705;DHT22;30431;48.520;9.046;2023-02-13T18:13:01;3.00;99.90
44705;DHT22;30431;48.520;9.046;2023-02-13T18:15:41;3.00;99.90
44705;DHT22;30431;48.520;9.046;2023-02-13T18:18:15;2.90;99.90
44705;DHT22;30431;48.520;9.046;2023-02-13T18:20:43;2.80;99.90
44705;DHT22;30431;48.520;9.046;2023-02-13T18:23:17;2.70;99.90
44705;DHT22;30431;48.520;9.046;2023-02-13T18:25:45;2.60;99.90
44705;DHT22;30431;48.520;9.046;2023-02-13T18:28:18;2.50;99.90
44705;DHT22;30431;48.520;9.046;2023-02-13T18:30:45;2.40;99.90
44705;DHT22;30431;48.520;9.046;2023-02-13T18:33:14;2.40;99.90
44705;DHT22;30431;48.520;9.046;2023-02-13T18:35:44;2.40;99.90
44705;DHT22;30431;48.520;9.046;2023-02-13T18:38:11;2.30;99.90
44705;DHT22;30431;48.520;9.046;2023-02-13T18:40:41;2.20;99.90
44705;DHT22;30431;48.520;9.046;2023-02-13T18:43:08;2.10;99.90
44705;DHT22;30431;48.520;9.046;2023-02-13T18:45:38;2.10;99.90
44705;DHT22;30431;48.520;9.046;2023-02-13T18:48:05;2.10;99.90
44705;DHT22;30431;48.520;9.046;2023-02-13T18:50:38;2.00;99.90
44705;DHT22;30431;48.520;9.046;2023-02-13T18:53:06;2.10;99.90
44705;DHT22;30431;48.520;9.046;2023-02-13T18:55:38;2.00;99.90
44705;DHT22;30431;48.520;9.046;2023-02-13T18:58:07;2.00;99.90
44705;DHT22;30431;48.520;9.046;2023-02-13T19:00:34;2.00;99.90
44705;DHT22;30431;48.520;9.046;2023-02-13T19:03:06;1.90;99.90
44705;DHT22;30431;48.520;9.046;2023-02-13T19:05:39;1.90;99.90
44705;DHT22;30431;48.520;9.046;2023-02-13T19:08:08;1.90;99.90
44705;DHT22;30431;48.520;9.046;2023-02-13T19:10:35;1.80;99.90
44705;DHT22;30431;48.520;9.046;2023-02-13T19:13:05;1.80;99.90
44705;DHT22;30431;48.520;9.046;2023-02-13T19:15:31;1.70;99.90
44705;DHT22;30431;48.520;9.046;2023-02-13T19:18:01;1.60;99.90
44705;DHT22;30431;48.520;9.046;2023-02-13T19:20:28;1.60;99.90
44705;DHT22;30431;48.520;9.046;2023-02-13T19:22:55;1.60;99.90
44705;DHT22;30431;48.520;9.046;2023-02-13T19:25:22;1.60;99.90
44705;DHT22;30431;48.520;9.046;2023-02-13T19:27:51;1.50;99.90
44705;DHT22;30431;48.520;9.046;2023-02-13T19:30:18;1.60;99.90
44705;DHT22;30431;48.520;9.046;2023-02-13T19:32:45;1.50;99.90
44705;DHT22;30431;48.520;9.046;2023-02-13T19:35:14;1.50;99.90
44705;DHT22;30431;48.520;9.046;2023-02-13T19:37:41;1.50;99.90
44705;DHT22;30431;48.520;9.046;2023-02-13T19:40:12;1.40;99.90
44705;DHT22;30431;48.520;9.046;2023-02-13T19:42:39;1.40;99.90
44705;DHT22;30431;48.520;9.046;2023-02-13T19:45:06;1.40;99.90
44705;DHT22;30431;48.520;9.046;2023-02-13T19:47:35;1.40;99.90